sensor_id;sensor_type;location;lat;lon;timestamp;temperature;humidity
26224;DHT22;14820;48.682;8.890;2022-08-02T00:01:22;19.00;99.90
26224;DHT22;14820;48.682;8.890;2022-08-02T00:03:48;19.00;99.90
26224;DHT22;14820;48.682;8.890;2022-08-02T00:06:14;19.00;99.90
26224;DHT22;14820;48.682;8.890;2022-08-02T00:08:39;18.90;99.90
26224;DHT22;14820;48.682;8.890;2022-08-02T00:11:05;18.80;99.90
26224;DHT22;14820;48.682;8.890;2022-08-02T00:13:31;18.80;99.90
26224;DHT22;14820;48.682;8.890;2022-08-02T00:15:57;18.70;99.90
26224;DHT22;14820;48.682;8.890;2022-08-02T00:18:23;18.70;99.90
26224;DHT22;14820;48.682;8.890;2022-08-02T00:20:48;18.60;99.90
26224;DHT22;14820;48.682;8.890;2022-08-02T00:23:14;18.70;99.90
26224;DHT22;14820;48.682;8.890;2022-08-02T00:25:40;18.60;99.90
26224;DHT22;14820;48.682;8.890;2022-08-02T00:28:06;18.60;99.90
26224;DHT22;14820;48.682;8.890;2022-08-02T00:30:31;18.60;99.90
26224;DHT22;14820;48.682;8.890;2022-08-02T00:32:57;18.60;99.90
26224;DHT22;14820;48.682;8.890;2022-08-02T00:35:23;18.50;99.90
26224;DHT22;14820;48.682;8.890;2022-08-02T00:37:49;18.50;99.90
26224;DHT22;14820;48.682;8.890;2022-08-02T00:40:15;18.50;99.90
26224;DHT22;14820;48.682;8.890;2022-08-02T00:42:40;18.40;99.90
26224;DHT22;14820;48.682;8.890;2022-08-02T00:45:08;18.40;99.90
26224;DHT22;14820;48.682;8.890;2022-08-02T00:47:34;18.40;99.90
26224;DHT22;14820;48.682;8.890;2022-08-02T00:50:00;18.40;99.90
26224;DHT22;14820;48.682;8.890;2022-08-02T00:52:26;18.50;99.90
26224;DHT22;14820;48.682;8.890;2022-08-02T00:54:51;18.50;99.90
26224;DHT22;14820;48.682;8.890;2022-08-02T00:57:17;18.50;99.90
26224;DHT22;14820;48.682;8.890;2022-08-02T00:59:43;18.60;99.90
26224;DHT22;14820;48.682;8.890;2022-08-02T01:02:08;18.60;99.90
26224;DHT22;14820;48.682;8.890;2022-08-02T01:04:34;18.50;99.90
26224;DHT22;14820;48.682;8.890;2022-08-02T01:07:01;18.40;99.90
26224;DHT22;14820;48.682;8.890;2022-08-02T01:09:28;18.40;99.90
26224;DHT22;14820;48.682;8.890;2022-08-02T01:11:54;18.30;99.90
26224;DHT22;14820;48.682;8.890;2022-08-02T01:14:21;18.20;99.90
26224;DHT22;14820;48.682;8.890;2022-08-02T01:20:03;18.10;99.90
26224;DHT22;14820;48.682;8.890;2022-08-02T01:28:21;17.90;99.90
26224;DHT22;14820;48.682;8.890;2022-08-02T01:30:56;17.90;99.90
26224;DHT22;14820;48.682;8.890;2022-08-02T01:33:25;17.80;99.90
26224;DHT22;14820;48.682;8.890;2022-08-02T01:35:54;17.70;99.90
26224;DHT22;14820;48.682;8.890;2022-08-02T01:38:28;17.70;99.90
26224;DHT22;14820;48.682;8.890;2022-08-02T01:40:56;17.70;99.90
26224;DHT22;14820;48.682;8.890;2022-08-02T01:43:24;17.70;99.90
26224;DHT22;14820;48.682;8.890;2022-08-02T01:45:52;17.70;99.90
26224;DHT22;14820;48.682;8.890;2022-08-02T01:48:19;17.60;99.90
26224;DHT22;14820;48.682;8.890;2022-08-02T01:50:47;17.60;99.90
26224;DHT22;14820;48.682;8.890;2022-08-02T01:53:15;17.60;99.90
26224;DHT22;14820;48.682;8.890;2022-08-02T01:55:45;17.60;99.90
26224;DHT22;14820;48.682;8.890;2022-08-02T01:58:15;17.60;99.90
26224;DHT22;14820;48.682;8.890;2022-08-02T02:00:42;17.60;99.90
26224;DHT22;14820;48.682;8.890;2022-08-02T02:03:17;17.50;99.90
26224;DHT22;14820;48.682;8.890;2022-08-02T02:05:49;17.50;99.90
26224;DHT22;14820;48.682;8.890;2022-08-02T02:08:20;17.50;99.90
26224;DHT22;14820;48.682;8.890;2022-08-02T02:10:49;17.40;99.90
26224;DHT22;14820;48.682;8.890;2022-08-02T02:13:17;17.30;99.90
26224;DHT22;14820;48.682;8.890;2022-08-02T02:15:46;17.20;99.90
26224;DHT22;14820;48.682;8.890;2022-08-02T02:18:20;17.20;99.90
26224;DHT22;14820;48.682;8.890;2022-08-02T02:20:47;17.20;99.90
26224;DHT22;14820;48.682;8.890;2022-08-02T02:23:12;17.10;99.90
26224;DHT22;14820;48.682;8.890;2022-08-02T02:25:40;17.10;99.90
26224;DHT22;14820;48.682;8.890;2022-08-02T02:28:11;17.10;99.90
26224;DHT22;14820;48.682;8.890;2022-08-02T02:30:43;17.10;99.90
26224;DHT22;14820;48.682;8.890;2022-08-02T02:33:11;17.00;99.90
26224;DHT22;14820;48.682;8.890;2022-08-02T02:35:39;17.00;99.90
26224;DHT22;14820;48.682;8.890;2022-08-02T02:38:10;17.00;99.90
26224;DHT22;14820;48.682;8.890;2022-08-02T02:40:37;17.10;99.90
26224;DHT22;14820;48.682;8.890;2022-08-02T02:43:05;17.00;99.90
26224;DHT22;14820;48.682;8.890;2022-08-02T02:45:33;17.00;99.90
26224;DHT22;14820;48.682;8.890;2022-08-02T02:48:00;16.90;99.90
26224;DHT22;14820;48.682;8.890;2022-08-02T02:50:27;16.80;99.90
26224;DHT22;14820;48.682;8.890;2022-08-02T02:52:54;16.80;99.90
26224;DHT22;14820;48.682;8.890;2022-08-02T02:55:21;16.80;99.90
26224;DHT22;14820;48.682;8.890;2022-08-02T02:57:49;16.90;99.90
26224;DHT22;14820;48.682;8.890;2022-08-02T03:00:15;16.90;99.90
26224;DHT22;14820;48.682;8.890;2022-08-02T03:02:42;16.90;99.90
26224;DHT22;14820;48.682;8.890;2022-08-02T03:05:09;16.90;99.90
26224;DHT22;14820;48.682;8.890;2022-08-02T03:07:36;16.80;99.90
26224;DHT22;14820;48.682;8.890;2022-08-02T03:10:04;16.80;99.90
26224;DHT22;14820;48.682;8.890;2022-08-02T03:12:31;16.70;99.90
26224;DHT22;14820;48.682;8.890;2022-08-02T03:15:00;16.70;99.90
26224;DHT22;14820;48.682;8.890;2022-08-02T03:17:38;16.60;99.90
26224;DHT22;14820;48.682;8.890;2022-08-02T03:20:09;16.70;99.90
26224;DHT22;14820;48.682;8.890;2022-08-02T03:22:35;16.70;99.90
26224;DHT22;14820;48.682;8.890;2022-08-02T03:25:01;16.60;99.90
26224;DHT22;14820;48.682;8.890;2022-08-02T03:27:27;16.60;99.90
26224;DHT22;14820;48.682;8.890;2022-08-02T03:29:52;16.50;99.90
26224;DHT22;14820;48.682;8.890;2022-08-02T03:32:18;16.40;99.90
26224;DHT22;14820;48.682;8.890;2022-08-02T03:34:44;16.40;99.90
26224;DHT22;14820;48.682;8.890;2022-08-02T03:37:10;16.40;99.90
26224;DHT22;14820;48.682;8.890;2022-08-02T03:39:37;16.40;99.90
26224;DHT22;14820;48.682;8.890;2022-08-02T03:42:03;16.40;99.90
26224;DHT22;14820;48.682;8.890;2022-08-02T03:44:29;16.30;99.90
26224;DHT22;14820;48.682;8.890;2022-08-02T03:46:56;16.40;99.90
26224;DHT22;14820;48.682;8.890;2022-08-02T03:49:22;16.30;99.90
26224;DHT22;14820;48.682;8.890;2022-08-02T03:51:48;16.30;99.90
26224;DHT22;14820;48.682;8.890;2022-08-02T03:54:16;16.20;99.90
26224;DHT22;14820;48.682;8.890;2022-08-02T03:56:42;16.10;99.90
26224;DHT22;14820;48.682;8.890;2022-08-02T03:59:10;16.10;99.90
26224;DHT22;14820;48.682;8.890;2022-08-02T04:01:36;16.00;99.90
26224;DHT22;14820;48.682;8.890;2022-08-02T04:04:02;16.10;99.90
26224;DHT22;14820;48.682;8.890;2022-08-02T04:06:28;16.20;99.90
26224;DHT22;14820;48.682;8.890;2022-08-02T04:08:54;16.20;99.90
26224;DHT22;14820;48.682;8.890;2022-08-02T04:11:20;16.30;99.90
26224;DHT22;14820;48.682;8.890;2022-08-02T04:13:59;16.30;99.90
26224;DHT22;14820;48.682;8.890;2022-08-02T04:16:42;16.40;99.90
26224;DHT22;14820;48.682;8.890;2022-08-02T04:19:19;16.30;99.90
26224;DHT22;14820;48.682;8.890;2022-08-02T04:21:47;16.20;99.90
26224;DHT22;14820;48.682;8.890;2022-08-02T04:24:16;16.10;99.90
26224;DHT22;14820;48.682;8.890;2022-08-02T04:26:42;16.10;99.90
26224;DHT22;14820;48.682;8.890;2022-08-02T04:29:10;16.10;99.90
26224;DHT22;14820;48.682;8.890;2022-08-02T04:31:37;16.10;99.90
26224;DHT22;14820;48.682;8.890;2022-08-02T04:34:03;16.10;99.90
26224;DHT22;14820;48.682;8.890;2022-08-02T04:36:29;16.20;99.90
26224;DHT22;14820;48.682;8.890;2022-08-02T04:38:55;16.10;99.90
26224;DHT22;14820;48.682;8.890;2022-08-02T04:41:21;16.20;99.90
26224;DHT22;14820;48.682;8.890;2022-08-02T04:43:47;16.20;99.90
26224;DHT22;14820;48.682;8.890;2022-08-02T04:46:12;16.30;99.90
26224;DHT22;14820;48.682;8.890;2022-08-02T04:48:38;16.20;99.90
26224;DHT22;14820;48.682;8.890;2022-08-02T04:51:04;16.20;99.90
26224;DHT22;14820;48.682;8.890;2022-08-02T04:53:29;16.20;99.90
26224;DHT22;14820;48.682;8.890;2022-08-02T04:55:55;16.20;99.90
26224;DHT22;14820;48.682;8.890;2022-08-02T04:58:21;16.20;99.90
26224;DHT22;14820;48.682;8.890;2022-08-02T05:00:46;16.20;99.90
26224;DHT22;14820;48.682;8.890;2022-08-02T05:03:12;16.20;99.90
26224;DHT22;14820;48.682;8.890;2022-08-02T05:05:39;16.20;99.90
26224;DHT22;14820;48.682;8.890;2022-08-02T05:08:04;16.20;99.90
26224;DHT22;14820;48.682;8.890;2022-08-02T05:10:30;16.20;99.90
26224;DHT22;14820;48.682;8.890;2022-08-02T05:12:56;16.30;99.90
26224;DHT22;14820;48.682;8.890;2022-08-02T05:15:21;16.40;99.90
26224;DHT22;14820;48.682;8.890;2022-08-02T05:17:47;16.40;99.90
26224;DHT22;14820;48.682;8.890;2022-08-02T05:20:17;16.50;99.90
26224;DHT22;14820;48.682;8.890;2022-08-02T05:22:43;16.50;99.90
26224;DHT22;14820;48.682;8.890;2022-08-02T05:25:10;16.60;99.90
26224;DHT22;14820;48.682;8.890;2022-08-02T05:27:35;16.70;99.90
26224;DHT22;14820;48.682;8.890;2022-08-02T05:30:02;16.70;99.90
26224;DHT22;14820;48.682;8.890;2022-08-02T05:32:28;16.80;99.90
26224;DHT22;14820;48.682;8.890;2022-08-02T05:34:53;16.90;99.90
26224;DHT22;14820;48.682;8.890;2022-08-02T05:37:19;16.90;99.90
26224;DHT22;14820;48.682;8.890;2022-08-02T05:39:45;16.80;99.90
26224;DHT22;14820;48.682;8.890;2022-08-02T05:42:10;16.80;99.90
26224;DHT22;14820;48.682;8.890;2022-08-02T05:44:36;16.80;99.90
26224;DHT22;14820;48.682;8.890;2022-08-02T05:47:02;16.80;99.90
26224;DHT22;14820;48.682;8.890;2022-08-02T05:49:28;16.80;99.90
26224;DHT22;14820;48.682;8.890;2022-08-02T05:52:17;16.90;99.90
26224;DHT22;14820;48.682;8.890;2022-08-02T06:00:20;17.10;99.90
26224;DHT22;14820;48.682;8.890;2022-08-02T06:05:33;17.30;99.90
26224;DHT22;14820;48.682;8.890;2022-08-02T06:08:00;17.40;99.90
26224;DHT22;14820;48.682;8.890;2022-08-02T06:10:27;17.40;99.90
26224;DHT22;14820;48.682;8.890;2022-08-02T06:13:14;17.50;99.90
26224;DHT22;14820;48.682;8.890;2022-08-02T06:15:42;17.60;99.90
26224;DHT22;14820;48.682;8.890;2022-08-02T06:18:08;17.70;99.90
26224;DHT22;14820;48.682;8.890;2022-08-02T06:20:35;17.80;99.90
26224;DHT22;14820;48.682;8.890;2022-08-02T06:23:07;18.00;99.90
26224;DHT22;14820;48.682;8.890;2022-08-02T06:25:35;18.10;99.90
26224;DHT22;14820;48.682;8.890;2022-08-02T06:28:04;18.20;99.90
26224;DHT22;14820;48.682;8.890;2022-08-02T06:30:31;18.30;99.90
26224;DHT22;14820;48.682;8.890;2022-08-02T06:32:57;18.40;99.90
26224;DHT22;14820;48.682;8.890;2022-08-02T06:35:38;18.40;99.90
26224;DHT22;14820;48.682;8.890;2022-08-02T06:38:07;18.50;99.90
26224;DHT22;14820;48.682;8.890;2022-08-02T06:44:00;18.60;99.90
26224;DHT22;14820;48.682;8.890;2022-08-02T06:46:27;18.60;99.90
26224;DHT22;14820;48.682;8.890;2022-08-02T06:48:53;18.60;99.90
26224;DHT22;14820;48.682;8.890;2022-08-02T06:51:19;18.60;99.90
26224;DHT22;14820;48.682;8.890;2022-08-02T06:53:45;18.70;99.90
26224;DHT22;14820;48.682;8.890;2022-08-02T06:56:12;18.70;99.90
26224;DHT22;14820;48.682;8.890;2022-08-02T06:58:37;18.80;99.90
26224;DHT22;14820;48.682;8.890;2022-08-02T07:01:03;19.00;99.90
26224;DHT22;14820;48.682;8.890;2022-08-02T07:03:40;19.10;99.90
26224;DHT22;14820;48.682;8.890;2022-08-02T07:06:07;19.30;99.90
26224;DHT22;14820;48.682;8.890;2022-08-02T07:08:37;19.40;99.90
26224;DHT22;14820;48.682;8.890;2022-08-02T07:11:12;19.40;99.90
26224;DHT22;14820;48.682;8.890;2022-08-02T07:13:37;19.50;99.90
26224;DHT22;14820;48.682;8.890;2022-08-02T07:16:03;19.60;99.90
26224;DHT22;14820;48.682;8.890;2022-08-02T07:18:29;19.70;99.90
26224;DHT22;14820;48.682;8.890;2022-08-02T07:20:55;19.90;99.90
26224;DHT22;14820;48.682;8.890;2022-08-02T07:23:21;20.00;99.90
26224;DHT22;14820;48.682;8.890;2022-08-02T07:25:47;19.90;99.90
26224;DHT22;14820;48.682;8.890;2022-08-02T07:28:13;19.90;99.90
26224;DHT22;14820;48.682;8.890;2022-08-02T07:30:42;19.90;99.90
26224;DHT22;14820;48.682;8.890;2022-08-02T07:33:08;20.00;99.90
26224;DHT22;14820;48.682;8.890;2022-08-02T07:35:34;20.20;99.90
26224;DHT22;14820;48.682;8.890;2022-08-02T07:38:00;20.30;99.90
26224;DHT22;14820;48.682;8.890;2022-08-02T07:40:26;20.30;99.90
26224;DHT22;14820;48.682;8.890;2022-08-02T07:42:54;20.30;99.90
26224;DHT22;14820;48.682;8.890;2022-08-02T07:45:20;20.40;99.90
26224;DHT22;14820;48.682;8.890;2022-08-02T07:47:47;20.40;99.90
26224;DHT22;14820;48.682;8.890;2022-08-02T07:50:14;20.40;99.90
26224;DHT22;14820;48.682;8.890;2022-08-02T07:52:41;20.40;99.90
26224;DHT22;14820;48.682;8.890;2022-08-02T07:55:08;20.40;99.90
26224;DHT22;14820;48.682;8.890;2022-08-02T07:57:34;20.60;99.90
26224;DHT22;14820;48.682;8.890;2022-08-02T08:00:00;20.60;99.90
26224;DHT22;14820;48.682;8.890;2022-08-02T08:02:26;20.70;99.90
26224;DHT22;14820;48.682;8.890;2022-08-02T08:04:52;20.80;99.90
26224;DHT22;14820;48.682;8.890;2022-08-02T08:07:18;20.80;99.90
26224;DHT22;14820;48.682;8.890;2022-08-02T08:09:44;20.80;99.90
26224;DHT22;14820;48.682;8.890;2022-08-02T08:12:12;20.80;99.90
26224;DHT22;14820;48.682;8.890;2022-08-02T08:14:38;21.00;99.90
26224;DHT22;14820;48.682;8.890;2022-08-02T08:17:05;21.10;99.90
26224;DHT22;14820;48.682;8.890;2022-08-02T08:19:31;21.10;99.90
26224;DHT22;14820;48.682;8.890;2022-08-02T08:21:57;21.20;99.90
26224;DHT22;14820;48.682;8.890;2022-08-02T08:24:26;21.30;99.90
26224;DHT22;14820;48.682;8.890;2022-08-02T08:26:53;21.30;99.90
26224;DHT22;14820;48.682;8.890;2022-08-02T08:29:18;21.40;99.90
26224;DHT22;14820;48.682;8.890;2022-08-02T08:31:44;21.40;99.90
26224;DHT22;14820;48.682;8.890;2022-08-02T08:34:10;21.60;99.90
26224;DHT22;14820;48.682;8.890;2022-08-02T08:36:36;21.70;99.90
26224;DHT22;14820;48.682;8.890;2022-08-02T08:39:03;21.80;99.90
26224;DHT22;14820;48.682;8.890;2022-08-02T08:41:28;22.00;99.90
26224;DHT22;14820;48.682;8.890;2022-08-02T08:43:54;22.10;99.90
26224;DHT22;14820;48.682;8.890;2022-08-02T08:46:26;22.10;99.90
26224;DHT22;14820;48.682;8.890;2022-08-02T08:48:58;22.20;99.90
26224;DHT22;14820;48.682;8.890;2022-08-02T08:51:29;22.30;99.90
26224;DHT22;14820;48.682;8.890;2022-08-02T08:53:56;22.40;99.90
26224;DHT22;14820;48.682;8.890;2022-08-02T08:56:32;22.60;99.90
26224;DHT22;14820;48.682;8.890;2022-08-02T08:58:59;22.70;99.90
26224;DHT22;14820;48.682;8.890;2022-08-02T09:01:25;22.70;99.90
26224;DHT22;14820;48.682;8.890;2022-08-02T09:03:51;22.60;99.90
26224;DHT22;14820;48.682;8.890;2022-08-02T09:06:16;22.50;99.90
26224;DHT22;14820;48.682;8.890;2022-08-02T09:08:42;22.50;99.90
26224;DHT22;14820;48.682;8.890;2022-08-02T09:11:13;22.60;99.90
26224;DHT22;14820;48.682;8.890;2022-08-02T09:13:51;22.80;99.90
26224;DHT22;14820;48.682;8.890;2022-08-02T09:16:41;22.90;99.90
26224;DHT22;14820;48.682;8.890;2022-08-02T09:19:25;23.00;99.90
26224;DHT22;14820;48.682;8.890;2022-08-02T09:22:00;23.10;99.90
26224;DHT22;14820;48.682;8.890;2022-08-02T09:24:26;23.20;99.90
26224;DHT22;14820;48.682;8.890;2022-08-02T09:26:51;23.40;99.90
26224;DHT22;14820;48.682;8.890;2022-08-02T09:29:21;23.40;99.90
26224;DHT22;14820;48.682;8.890;2022-08-02T09:31:47;23.60;99.90
26224;DHT22;14820;48.682;8.890;2022-08-02T09:34:15;23.70;99.90
26224;DHT22;14820;48.682;8.890;2022-08-02T09:36:42;23.70;99.90
26224;DHT22;14820;48.682;8.890;2022-08-02T09:39:13;23.60;99.90
26224;DHT22;14820;48.682;8.890;2022-08-02T09:41:41;23.60;99.90
26224;DHT22;14820;48.682;8.890;2022-08-02T09:44:11;23.60;99.90
26224;DHT22;14820;48.682;8.890;2022-08-02T09:46:44;23.60;99.90
26224;DHT22;14820;48.682;8.890;2022-08-02T09:49:13;23.70;99.90
26224;DHT22;14820;48.682;8.890;2022-08-02T09:54:26;23.90;99.90
26224;DHT22;14820;48.682;8.890;2022-08-02T09:56:58;23.90;99.90
26224;DHT22;14820;48.682;8.890;2022-08-02T09:59:27;24.10;99.90
26224;DHT22;14820;48.682;8.890;2022-08-02T10:01:54;24.00;99.90
26224;DHT22;14820;48.682;8.890;2022-08-02T10:04:24;23.90;99.90
26224;DHT22;14820;48.682;8.890;2022-08-02T10:06:51;23.70;99.90
26224;DHT22;14820;48.682;8.890;2022-08-02T10:09:18;23.80;99.90
26224;DHT22;14820;48.682;8.890;2022-08-02T10:11:44;23.90;99.90
26224;DHT22;14820;48.682;8.890;2022-08-02T10:14:11;24.10;99.90
26224;DHT22;14820;48.682;8.890;2022-08-02T10:16:39;24.30;99.90
26224;DHT22;14820;48.682;8.890;2022-08-02T10:19:05;24.50;99.90
26224;DHT22;14820;48.682;8.890;2022-08-02T10:21:43;24.60;99.90
26224;DHT22;14820;48.682;8.890;2022-08-02T10:26:39;24.80;99.90
26224;DHT22;14820;48.682;8.890;2022-08-02T10:29:08;24.70;99.90
26224;DHT22;14820;48.682;8.890;2022-08-02T10:31:58;24.70;99.90
26224;DHT22;14820;48.682;8.890;2022-08-02T10:35:04;24.60;99.90
26224;DHT22;14820;48.682;8.890;2022-08-02T10:37:33;24.50;99.90
26224;DHT22;14820;48.682;8.890;2022-08-02T10:40:01;24.60;99.90
26224;DHT22;14820;48.682;8.890;2022-08-02T10:42:43;24.80;99.90
26224;DHT22;14820;48.682;8.890;2022-08-02T10:45:10;24.90;99.90
26224;DHT22;14820;48.682;8.890;2022-08-02T10:47:36;24.80;99.90
26224;DHT22;14820;48.682;8.890;2022-08-02T10:50:03;24.80;99.90
26224;DHT22;14820;48.682;8.890;2022-08-02T10:52:29;24.70;99.90
26224;DHT22;14820;48.682;8.890;2022-08-02T10:54:56;24.80;99.90
26224;DHT22;14820;48.682;8.890;2022-08-02T10:57:25;24.70;99.90
26224;DHT22;14820;48.682;8.890;2022-08-02T10:59:55;24.70;99.90
26224;DHT22;14820;48.682;8.890;2022-08-02T11:02:41;25.00;99.90
26224;DHT22;14820;48.682;8.890;2022-08-02T11:05:30;25.00;99.90
26224;DHT22;14820;48.682;8.890;2022-08-02T11:07:56;25.00;99.90
26224;DHT22;14820;48.682;8.890;2022-08-02T11:10:26;24.90;99.90
26224;DHT22;14820;48.682;8.890;2022-08-02T11:13:05;24.90;99.90
26224;DHT22;14820;48.682;8.890;2022-08-02T11:15:49;25.00;99.90
26224;DHT22;14820;48.682;8.890;2022-08-02T11:18:16;25.00;99.90
26224;DHT22;14820;48.682;8.890;2022-08-02T11:20:42;25.10;99.90
26224;DHT22;14820;48.682;8.890;2022-08-02T11:23:37;25.20;99.90
26224;DHT22;14820;48.682;8.890;2022-08-02T11:26:41;25.40;99.90
26224;DHT22;14820;48.682;8.890;2022-08-02T11:29:07;25.50;99.90
26224;DHT22;14820;48.682;8.890;2022-08-02T11:31:43;25.40;99.90
26224;DHT22;14820;48.682;8.890;2022-08-02T11:34:10;25.50;99.90
26224;DHT22;14820;48.682;8.890;2022-08-02T11:36:47;25.60;99.90
26224;DHT22;14820;48.682;8.890;2022-08-02T11:39:15;25.70;99.90
26224;DHT22;14820;48.682;8.890;2022-08-02T11:41:41;25.80;99.90
26224;DHT22;14820;48.682;8.890;2022-08-02T11:44:07;25.90;99.90
26224;DHT22;14820;48.682;8.890;2022-08-02T11:46:33;25.80;99.90
26224;DHT22;14820;48.682;8.890;2022-08-02T11:49:19;25.80;99.90
26224;DHT22;14820;48.682;8.890;2022-08-02T11:51:55;25.80;99.90
26224;DHT22;14820;48.682;8.890;2022-08-02T11:54:29;25.90;99.90
26224;DHT22;14820;48.682;8.890;2022-08-02T11:57:08;25.90;99.90
26224;DHT22;14820;48.682;8.890;2022-08-02T11:59:38;25.90;99.90
26224;DHT22;14820;48.682;8.890;2022-08-02T12:02:05;26.10;99.90
26224;DHT22;14820;48.682;8.890;2022-08-02T12:04:31;26.30;99.90
26224;DHT22;14820;48.682;8.890;2022-08-02T12:06:58;26.40;99.90
26224;DHT22;14820;48.682;8.890;2022-08-02T12:09:26;26.50;99.90
26224;DHT22;14820;48.682;8.890;2022-08-02T12:11:53;26.60;99.90
26224;DHT22;14820;48.682;8.890;2022-08-02T12:14:18;26.70;99.90
26224;DHT22;14820;48.682;8.890;2022-08-02T12:16:44;26.80;99.90
26224;DHT22;14820;48.682;8.890;2022-08-02T12:19:29;26.80;99.90
26224;DHT22;14820;48.682;8.890;2022-08-02T12:22:10;26.80;99.90
26224;DHT22;14820;48.682;8.890;2022-08-02T12:24:36;26.60;99.90
26224;DHT22;14820;48.682;8.890;2022-08-02T12:27:02;26.50;99.90
26224;DHT22;14820;48.682;8.890;2022-08-02T12:29:46;26.40;99.90
26224;DHT22;14820;48.682;8.890;2022-08-02T12:32:22;26.30;99.90
26224;DHT22;14820;48.682;8.890;2022-08-02T12:35:00;26.30;99.90
26224;DHT22;14820;48.682;8.890;2022-08-02T12:37:26;26.10;99.90
26224;DHT22;14820;48.682;8.890;2022-08-02T12:39:52;26.20;99.90
26224;DHT22;14820;48.682;8.890;2022-08-02T12:42:18;26.30;99.90
26224;DHT22;14820;48.682;8.890;2022-08-02T12:44:53;26.40;99.90
26224;DHT22;14820;48.682;8.890;2022-08-02T12:47:19;26.40;99.30
26224;DHT22;14820;48.682;8.890;2022-08-02T12:49:46;26.50;99.00
26224;DHT22;14820;48.682;8.890;2022-08-02T12:52:31;26.60;99.20
26224;DHT22;14820;48.682;8.890;2022-08-02T12:54:57;26.70;98.30
26224;DHT22;14820;48.682;8.890;2022-08-02T12:57:23;26.70;98.50
26224;DHT22;14820;48.682;8.890;2022-08-02T12:59:51;26.70;98.60
26224;DHT22;14820;48.682;8.890;2022-08-02T13:02:17;26.80;98.30
26224;DHT22;14820;48.682;8.890;2022-08-02T13:04:43;26.80;98.20
26224;DHT22;14820;48.682;8.890;2022-08-02T13:07:09;26.90;98.40
26224;DHT22;14820;48.682;8.890;2022-08-02T13:09:37;27.00;98.00
26224;DHT22;14820;48.682;8.890;2022-08-02T13:12:04;26.90;97.10
26224;DHT22;14820;48.682;8.890;2022-08-02T13:14:30;27.00;97.10
26224;DHT22;14820;48.682;8.890;2022-08-02T13:16:56;27.10;97.20
26224;DHT22;14820;48.682;8.890;2022-08-02T13:19:22;27.10;96.90
26224;DHT22;14820;48.682;8.890;2022-08-02T13:21:47;27.20;96.40
26224;DHT22;14820;48.682;8.890;2022-08-02T13:24:14;27.20;96.80
26224;DHT22;14820;48.682;8.890;2022-08-02T13:26:41;27.20;96.90
26224;DHT22;14820;48.682;8.890;2022-08-02T13:29:08;27.30;96.50
26224;DHT22;14820;48.682;8.890;2022-08-02T13:31:34;27.30;96.50
26224;DHT22;14820;48.682;8.890;2022-08-02T13:34:05;27.40;96.30
26224;DHT22;14820;48.682;8.890;2022-08-02T13:36:32;27.30;95.60
26224;DHT22;14820;48.682;8.890;2022-08-02T13:38:59;27.40;95.70
26224;DHT22;14820;48.682;8.890;2022-08-02T13:41:25;27.40;95.30
26224;DHT22;14820;48.682;8.890;2022-08-02T13:43:50;27.40;95.00
26224;DHT22;14820;48.682;8.890;2022-08-02T13:46:16;27.50;94.80
26224;DHT22;14820;48.682;8.890;2022-08-02T13:48:42;27.50;94.70
26224;DHT22;14820;48.682;8.890;2022-08-02T13:51:07;27.50;94.70
26224;DHT22;14820;48.682;8.890;2022-08-02T13:53:40;27.50;94.90
26224;DHT22;14820;48.682;8.890;2022-08-02T13:56:06;27.50;95.00
26224;DHT22;14820;48.682;8.890;2022-08-02T13:58:32;27.60;94.60
26224;DHT22;14820;48.682;8.890;2022-08-02T14:00:58;27.60;94.30
26224;DHT22;14820;48.682;8.890;2022-08-02T14:03:24;27.60;93.50
26224;DHT22;14820;48.682;8.890;2022-08-02T14:05:49;27.60;94.10
26224;DHT22;14820;48.682;8.890;2022-08-02T14:08:16;27.60;93.80
26224;DHT22;14820;48.682;8.890;2022-08-02T14:10:42;27.50;93.60
26224;DHT22;14820;48.682;8.890;2022-08-02T14:13:08;27.50;93.60
26224;DHT22;14820;48.682;8.890;2022-08-02T14:15:34;27.50;93.80
26224;DHT22;14820;48.682;8.890;2022-08-02T14:17:59;27.50;93.00
26224;DHT22;14820;48.682;8.890;2022-08-02T14:20:25;27.60;93.00
26224;DHT22;14820;48.682;8.890;2022-08-02T14:22:51;27.60;93.20
26224;DHT22;14820;48.682;8.890;2022-08-02T14:25:17;27.70;92.70
26224;DHT22;14820;48.682;8.890;2022-08-02T14:27:42;27.70;92.90
26224;DHT22;14820;48.682;8.890;2022-08-02T14:30:08;27.60;92.00
26224;DHT22;14820;48.682;8.890;2022-08-02T14:32:34;27.70;92.70
26224;DHT22;14820;48.682;8.890;2022-08-02T14:34:59;27.70;92.20
26224;DHT22;14820;48.682;8.890;2022-08-02T14:37:25;27.80;91.60
26224;DHT22;14820;48.682;8.890;2022-08-02T14:39:51;27.80;91.30
26224;DHT22;14820;48.682;8.890;2022-08-02T14:42:16;27.70;91.00
26224;DHT22;14820;48.682;8.890;2022-08-02T14:44:42;27.70;91.20
26224;DHT22;14820;48.682;8.890;2022-08-02T14:47:08;27.70;90.70
26224;DHT22;14820;48.682;8.890;2022-08-02T14:49:34;27.70;91.00
26224;DHT22;14820;48.682;8.890;2022-08-02T14:51:59;27.70;90.80
26224;DHT22;14820;48.682;8.890;2022-08-02T14:54:26;27.60;90.60
26224;DHT22;14820;48.682;8.890;2022-08-02T14:56:57;27.50;90.90
26224;DHT22;14820;48.682;8.890;2022-08-02T14:59:23;27.50;90.90
26224;DHT22;14820;48.682;8.890;2022-08-02T15:01:49;27.50;90.90
26224;DHT22;14820;48.682;8.890;2022-08-02T15:04:15;27.50;90.70
26224;DHT22;14820;48.682;8.890;2022-08-02T15:06:40;27.60;91.50
26224;DHT22;14820;48.682;8.890;2022-08-02T15:09:06;27.60;91.30
26224;DHT22;14820;48.682;8.890;2022-08-02T15:11:32;27.70;90.90
26224;DHT22;14820;48.682;8.890;2022-08-02T15:13:57;27.80;90.80
26224;DHT22;14820;48.682;8.890;2022-08-02T15:16:24;27.70;90.10
26224;DHT22;14820;48.682;8.890;2022-08-02T15:18:50;27.70;90.30
26224;DHT22;14820;48.682;8.890;2022-08-02T15:21:16;27.70;90.30
26224;DHT22;14820;48.682;8.890;2022-08-02T15:23:41;27.70;90.20
26224;DHT22;14820;48.682;8.890;2022-08-02T15:26:07;27.60;90.50
26224;DHT22;14820;48.682;8.890;2022-08-02T15:28:33;27.60;90.60
26224;DHT22;14820;48.682;8.890;2022-08-02T15:30:59;27.70;90.60
26224;DHT22;14820;48.682;8.890;2022-08-02T15:33:25;27.70;90.90
26224;DHT22;14820;48.682;8.890;2022-08-02T15:35:51;27.70;90.40
26224;DHT22;14820;48.682;8.890;2022-08-02T15:38:17;27.70;90.40
26224;DHT22;14820;48.682;8.890;2022-08-02T15:40:42;27.80;90.40
26224;DHT22;14820;48.682;8.890;2022-08-02T15:43:09;27.80;90.20
26224;DHT22;14820;48.682;8.890;2022-08-02T15:45:35;27.90;89.80
26224;DHT22;14820;48.682;8.890;2022-08-02T15:48:01;27.90;89.70
26224;DHT22;14820;48.682;8.890;2022-08-02T15:50:28;27.90;90.10
26224;DHT22;14820;48.682;8.890;2022-08-02T15:52:53;27.90;90.30
26224;DHT22;14820;48.682;8.890;2022-08-02T15:55:19;27.90;90.40
26224;DHT22;14820;48.682;8.890;2022-08-02T15:57:45;27.90;90.20
26224;DHT22;14820;48.682;8.890;2022-08-02T16:00:11;27.90;90.00
26224;DHT22;14820;48.682;8.890;2022-08-02T16:02:37;27.80;89.20